Time;durP1;ratioP1;P1;durP2;ratioP2;P2;SDS_P1;SDS_P2;PMS_P1;PMS_P2;Temp;Humidity;BMP_temperature;BMP_pressure;BME280_temperature;BME280_humidity;BME280_pressure;Samples;Min_cycle;Max_cycle;Signal;HPM_P1;HPM_P2
2023/03/08 00:03:56;;;;;;;;;;;6.10;53.80;;;4.55;57.57;99417.97;12256809;19;19911;-88
2023/03/08 00:07:58;;;;;;;;;;;6.20;53.80;;;4.42;57.39;99412.59;12257038;19;20330;-88
2023/03/08 00:11:59;;;;;;;;;;;6.10;53.80;;;4.53;57.37;99440.47;12255971;19;19919;-88
2023/03/08 00:16:02;;;;;;;;;;;6.10;53.80;;;4.39;57.40;99428.25;12259730;19;19910;-88
2023/03/08 00:20:06;;;;;;;;;;;6.10;54.10;;;4.47;57.39;99453.72;12256536;19;19922;-88
2023/03/08 00:24:07;;;;;;;;;;;6.00;53.70;;;4.30;57.26;99439.91;12256440;19;19971;-87
2023/03/08 00:28:09;;;;;;;;;;;6.00;53.70;;;4.34;57.53;99449.16;12256849;19;19917;-87
2023/03/08 00:32:15;;;;;;;;;;;6.00;53.80;;;4.12;57.40;99414.97;12248383;19;21347;-87
2023/03/08 00:36:18;;;;;;;;;;;6.00;53.70;;;4.35;57.61;99458.59;12252541;19;19943;-87
2023/03/08 00:40:19;;;;;;;;;;;5.90;53.70;;;4.34;57.42;99467.25;12251626;19;19919;-87
2023/03/08 00:44:21;;;;;;;;;;;5.90;53.70;;;4.28;57.47;99459.81;12249593;19;19911;-87
2023/03/08 00:48:23;;;;;;;;;;;5.90;53.70;;;4.24;57.38;99462.63;12253147;19;20288;-87
2023/03/08 00:52:26;;;;;;;;;;;5.90;53.70;;;3.95;57.39;99418.41;12252076;19;19923;-87
2023/03/08 00:56:28;;;;;;;;;;;5.80;53.70;;;3.96;57.42;99422.66;12255254;19;19914;-87
2023/03/08 01:00:31;;;;;;;;;;;5.80;53.70;;;4.15;57.68;99467.31;12250446;19;19919;-87
2023/03/08 01:04:33;;;;;;;;;;;5.80;53.70;;;4.11;57.41;99463.25;12248453;19;20340;-87
2023/03/08 01:08:35;;;;;;;;;;;5.90;53.70;;;4.10;57.63;99463.28;12252930;19;20454;-87
2023/03/08 01:12:37;;;;;;;;;;;5.70;53.60;;;4.10;57.35;99466.72;12249123;19;19915;-87
2023/03/08 01:16:39;;;;;;;;;;;5.70;53.60;;;4.07;57.47;99473.78;12252557;19;19974;-87
2023/03/08 01:20:41;;;;;;;;;;;5.70;53.60;;;3.99;57.54;99467.22;12246971;19;20257;-87
2023/03/08 01:24:47;;;;;;;;;;;6.00;53.70;;;4.13;57.56;99497.59;12248935;19;19930;-87
2023/03/08 01:28:49;;;;;;;;;;;5.70;53.60;;;3.84;57.58;99451.66;12252038;19;19919;-87
2023/03/08 01:32:51;;;;;;;;;;;5.70;53.60;;;4.05;57.41;99491.09;12249989;19;19915;-87
2023/03/08 01:36:52;;;;;;;;;;;5.60;53.60;;;4.04;57.44;99494.59;12250056;19;19914;-87
2023/03/08 01:40:59;;;;;;;;;;;5.60;53.50;;;3.65;57.50;99446.53;12249896;19;19919;-87
2023/03/08 01:45:04;;;;;;;;;;;5.60;53.60;;;3.65;57.40;99449.97;12246954;19;19990;-87
2023/03/08 01:49:32;;;;;;;;;;;5.50;53.60;;;3.90;57.43;99497.84;12250648;19;19911;-87
2023/03/08 01:53:37;;;;;;;;;;;5.50;53.50;;;3.75;57.52;99471.00;12247419;19;19922;-87
2023/03/08 01:57:41;;;;;;;;;;;5.50;53.60;;;3.55;57.33;99444.38;12250404;19;19925;-87
2023/03/08 02:01:44;;;;;;;;;;;5.50;53.60;;;3.85;57.53;99505.81;12247337;19;19914;-87
2023/03/08 02:05:46;;;;;;;;;;;5.50;53.60;;;3.70;57.47;99483.28;12250406;19;19915;-87
2023/03/08 02:09:50;;;;;;;;;;;5.50;53.60;;;3.79;57.46;99498.34;12243795;19;19918;-87
2023/03/08 02:13:53;;;;;;;;;;;5.40;53.50;;;3.77;57.55;99510.50;12246185;19;19961;-87
2023/03/08 02:17:55;;;;;;;;;;;5.50;53.60;;;3.73;57.57;99501.22;12249256;19;20303;-87
2023/03/08 02:21:57;;;;;;;;;;;5.40;53.50;;;3.80;57.50;99519.84;12245508;19;19922;-87
2023/03/08 02:26:01;;;;;;;;;;;5.40;53.60;;;3.73;57.63;99496.06;12248278;19;20265;-87
2023/03/08 02:30:03;;;;;;;;;;;5.40;53.60;;;3.74;57.47;99508.06;12246583;19;19940;-88
2023/03/08 02:34:05;;;;;;;;;;;5.40;53.60;;;3.73;57.57;99504.66;12256790;19;19930;-87
2023/03/08 02:38:07;;;;;;;;;;;5.30;53.50;;;3.65;57.39;99504.16;12258702;19;19919;-87
2023/03/08 02:42:09;;;;;;;;;;;5.30;53.60;;;3.39;57.44;99465.81;12254952;19;19924;-87
2023/03/08 02:46:12;;;;;;;;;;;5.30;53.50;;;3.64;57.68;99525.72;12261599;19;20289;-88
2023/03/08 02:50:14;;;;;;;;;;;5.30;53.50;;;3.50;57.56;99507.44;12258738;19;19927;-87
2023/03/08 02:54:15;;;;;;;;;;;5.30;53.50;;;3.58;57.50;99517.41;12256723;19;19926;-87
2023/03/08 02:58:17;;;;;;;;;;;5.30;53.60;;;3.56;57.58;99520.06;12258176;19;21703;-87
2023/03/08 03:02:18;;;;;;;;;;;5.50;53.60;;;3.47;57.67;99508.41;12252381;19;19919;-87
2023/03/08 03:06:21;;;;;;;;;;;5.20;53.50;;;3.48;57.51;99512.69;12257621;19;19911;-88
2023/03/08 03:10:26;;;;;;;;;;;5.20;53.50;;;3.51;57.40;99522.88;12254451;19;19939;-88
2023/03/08 03:14:28;;;;;;;;;;;5.10;53.60;;;3.33;57.58;99503.88;12255995;19;19951;-88
2023/03/08 03:18:31;;;;;;;;;;;5.30;53.60;;;3.32;57.51;99506.53;12255790;19;20313;-88
2023/03/08 03:22:32;;;;;;;;;;;5.30;53.70;;;3.40;57.50;99519.09;12253325;19;19922;-88
2023/03/08 03:26:34;;;;;;;;;;;5.00;53.60;;;3.29;57.57;99506.66;12255828;19;20253;-88
2023/03/08 03:30:35;;;;;;;;;;;5.00;53.60;;;3.06;57.63;99463.88;12255053;19;19944;-88
2023/03/08 03:34:38;;;;;;;;;;;5.10;53.70;;;3.40;57.60;99534.56;12252734;19;19918;-88
2023/03/08 03:38:40;;;;;;;;;;;5.00;54.00;;;3.25;57.71;99516.28;12255006;19;19932;-88
2023/03/08 03:42:42;;;;;;;;;;;5.00;53.70;;;3.24;57.72;99532.69;12252547;19;20329;-88
2023/03/08 03:46:47;;;;;;;;;;;5.00;53.60;;;2.82;57.58;99471.78;12255547;19;19940;-88
2023/03/08 03:50:57;;;;;;;;;;;5.10;53.70;;;3.36;57.56;99567.41;12255902;19;19930;-88
2023/03/08 03:54:59;;;;;;;;;;;5.00;53.70;;;3.07;57.51;99523.09;12250532;19;20399;-87
2023/03/08 03:59:01;;;;;;;;;;;4.90;53.70;;;3.26;57.58;99563.56;12255049;19;19910;-87
2023/03/08 04:03:03;;;;;;;;;;;5.10;53.70;;;3.25;57.57;99561.91;12252541;19;19937;-88
2023/03/08 04:07:05;;;;;;;;;;;4.90;53.70;;;3.12;57.68;99543.53;12253258;19;19918;-88
2023/03/08 04:11:15;;;;;;;;;;;4.90;53.70;;;3.26;57.55;99581.63;12254413;19;19990;-88
2023/03/08 04:15:16;;;;;;;;;;;5.10;53.90;;;3.24;57.70;99592.03;12248838;19;19923;-88
2023/03/08 04:19:19;;;;;;;;;;;4.90;53.80;;;3.16;57.60;99578.63;12253015;19;19923;-88
2023/03/08 04:23:25;;;;;;;;;;;5.10;53.90;;;3.05;57.70;99555.88;12250478;19;19932;-88
2023/03/08 04:27:27;;;;;;;;;;;5.10;54.00;;;3.15;57.61;99573.50;12251897;19;19932;-88
2023/03/08 04:31:29;;;;;;;;;;;4.90;53.90;;;3.17;57.52;99582.03;12250644;19;19954;-88
2023/03/08 04:35:34;;;;;;;;;;;5.10;54.10;;;3.17;57.71;99593.19;12252117;19;20233;-88
2023/03/08 04:39:37;;;;;;;;;;;4.80;53.90;;;2.87;57.70;99536.88;12251399;19;19922;-88
2023/03/08 04:43:43;;;;;;;;;;;4.80;53.90;;;3.12;57.61;99581.38;12251247;19;19946;-88
2023/03/08 04:47:45;;;;;;;;;;;5.00;54.00;;;2.92;57.80;99539.25;12252721;19;19929;-87
2023/03/08 04:51:48;;;;;;;;;;;4.90;54.00;;;3.10;57.71;99561.63;12250210;19;19910;-88
2023/03/08 04:55:51;;;;;;;;;;;4.90;54.40;;;3.31;57.68;99596.00;12250972;19;19923;-88
2023/03/08 04:59:53;;;;;;;;;;;4.90;54.00;;;3.31;57.80;99577.09;12244033;19;19939;-88
2023/03/08 05:03:55;;;;;;;;;;;4.90;53.90;;;3.24;57.74;99568.81;12248818;19;19918;-88
2023/03/08 05:08:05;;;;;;;;;;;5.00;53.90;;;3.34;57.61;99584.69;12250762;19;20321;-88
2023/03/08 05:12:09;;;;;;;;;;;5.00;53.90;;;3.28;57.59;99570.34;12248032;19;19931;-88
2023/03/08 05:16:30;;;;;;;;;;;5.00;53.90;;;3.38;57.90;99580.25;12248624;19;19933;-88
2023/03/08 05:20:33;;;;;;;;;;;5.10;53.90;;;3.31;57.79;99559.88;12247948;19;19989;-88
2023/03/08 05:24:38;;;;;;;;;;;5.10;53.90;;;3.31;57.55;99567.59;12249078;19;19907;-88
2023/03/08 05:28:42;;;;;;;;;;;5.10;53.90;;;3.42;57.87;99595.53;12247163;19;20271;-88
2023/03/08 05:32:44;;;;;;;;;;;5.10;53.80;;;3.46;57.74;99597.06;12245183;19;19918;-88
2023/03/08 05:36:46;;;;;;;;;;;5.10;53.80;;;3.28;57.79;99572.06;12249443;19;19925;-88
2023/03/08 05:40:48;;;;;;;;;;;5.10;53.80;;;3.15;57.74;99545.97;12247784;19;19948;-88
2023/03/08 05:44:50;;;;;;;;;;;5.10;53.80;;;3.33;57.78;99577.88;12245504;19;20054;-88
2023/03/08 05:48:57;;;;;;;;;;;5.10;53.70;;;3.42;57.84;99602.44;12246372;19;20608;-88
2023/03/08 05:52:59;;;;;;;;;;;5.20;53.70;;;3.42;57.73;99603.25;12243217;19;19931;-88
2023/03/08 05:57:04;;;;;;;;;;;5.10;53.70;;;3.37;57.70;99594.06;12246452;19;19907;-88
2023/03/08 06:01:15;;;;;;;;;;;5.10;53.70;;;3.41;57.75;99611.91;12244173;19;19958;-88
2023/03/08 06:05:17;;;;;;;;;;;5.10;53.60;;;3.46;57.65;99617.72;12247987;19;19915;-88
2023/03/08 06:09:20;;;;;;;;;;;5.10;53.80;;;3.25;57.75;99587.69;12259183;19;19922;-88
2023/03/08 06:13:22;;;;;;;;;;;5.10;53.60;;;3.42;57.99;99608.44;12256147;19;19921;-88
2023/03/08 06:17:24;;;;;;;;;;;5.10;53.60;;;3.18;57.72;99565.63;12256600;19;19970;-88
2023/03/08 06:21:29;;;;;;;;;;;5.10;53.60;;;3.41;57.56;99611.91;12253750;19;19936;-88
2023/03/08 06:25:34;;;;;;;;;;;5.10;53.60;;;3.40;57.79;99623.13;12257051;19;20321;-88
2023/03/08 06:29:37;;;;;;;;;;;5.10;53.60;;;3.18;57.74;99588.84;12258146;19;20329;-88
2023/03/08 06:33:39;;;;;;;;;;;5.10;53.60;;;2.88;57.88;99535.13;12254983;19;19926;-88
2023/03/08 06:37:41;;;;;;;;;;;5.30;53.70;;;3.44;57.93;99631.59;12258732;19;20363;-88
2023/03/08 06:41:44;;;;;;;;;;;5.10;53.60;;;3.24;57.77;99601.47;12254110;19;19982;-88
2023/03/08 06:45:48;;;;;;;;;;;5.10;53.60;;;3.45;57.82;99641.84;12258603;19;19978;-88
2023/03/08 06:49:51;;;;;;;;;;;5.40;53.80;;;3.46;57.79;99643.53;12259071;19;19951;-88
2023/03/08 06:53:53;;;;;;;;;;;5.10;53.70;;;3.46;57.90;99643.53;12253599;19;20283;-88
2023/03/08 06:57:57;;;;;;;;;;;5.10;53.70;;;3.40;57.73;99622.28;12257216;19;19918;-88
2023/03/08 07:01:58;;;;;;;;;;;5.10;53.80;;;3.23;57.92;99579.19;12253204;19;19961;-88
2023/03/08 07:06:02;;;;;;;;;;;5.10;53.80;;;3.51;57.84;99620.94;12258753;19;19918;-88
2023/03/08 07:10:04;;;;;;;;;;;5.20;53.90;;;3.48;57.82;99610.75;12255978;19;20265;-88
2023/03/08 07:14:06;;;;;;;;;;;5.20;53.90;;;3.42;57.92;99592.94;12255830;19;20330;-89
2023/03/08 07:18:07;;;;;;;;;;;5.20;53.90;;;3.36;57.89;99575.16;12254225;19;20353;-88
2023/03/08 07:22:11;;;;;;;;;;;5.40;54.00;;;3.58;57.93;99608.59;12252795;19;19911;-88
2023/03/08 07:26:13;;;;;;;;;;;5.20;53.90;;;3.59;58.04;99612.84;12259345;19;19918;-87
2023/03/08 07:30:16;;;;;;;;;;;5.30;54.00;;;3.59;58.08;99609.41;12252538;19;20321;-89
2023/03/08 07:34:17;;;;;;;;;;;5.30;53.90;;;3.70;58.05;99609.78;12251456;19;20359;-88
2023/03/08 07:38:19;;;;;;;;;;;5.30;53.90;;;3.61;57.82;99598.13;12256782;19;19918;-88
2023/03/08 07:42:20;;;;;;;;;;;5.40;53.90;;;3.77;57.93;99622.34;12250215;19;19926;-87
2023/03/08 07:46:28;;;;;;;;;;;5.40;53.90;;;3.80;57.85;99626.53;12254998;19;19935;-90
2023/03/08 07:50:30;;;;;;;;;;;5.60;54.00;;;3.80;58.12;99623.94;12255381;19;20334;-87
2023/03/08 07:54:32;;;;;;;;;;;5.50;53.90;;;3.80;57.97;99626.53;12251965;19;19927;-88
2023/03/08 07:58:34;;;;;;;;;;;5.50;53.90;;;3.76;57.86;99612.94;12257029;19;19927;-87
2023/03/08 08:02:35;;;;;;;;;;;5.60;54.10;;;3.93;57.85;99637.97;12250432;19;20341;-88
2023/03/08 08:06:38;;;;;;;;;;;5.80;54.10;;;3.85;58.16;99609.09;12255457;19;19923;-89
2023/03/08 08:10:41;;;;;;;;;;;5.70;54.10;;;3.96;58.20;99618.94;12254137;19;20311;-88
2023/03/08 08:14:43;;;;;;;;;;;5.90;54.20;;;3.98;58.15;99612.78;12250304;19;19923;-88
2023/03/08 08:18:45;;;;;;;;;;;5.70;54.20;;;4.14;58.22;99612.09;12254125;19;19914;-88
2023/03/08 08:22:46;;;;;;;;;;;6.00;54.30;;;4.11;58.17;99592.41;12248743;19;19943;-89
2023/03/08 08:26:48;;;;;;;;;;;5.90;54.30;;;4.29;58.31;99606.19;12251542;19;20413;-88
2023/03/08 08:31:02;;;;;;;;;;;6.20;54.40;;;4.44;58.40;99609.78;12250700;19;19947;-88
2023/03/08 08:35:05;;;;;;;;;;;6.10;54.40;;;4.61;58.30;99619.31;12256592;19;19927;-88
2023/03/08 08:39:07;;;;;;;;;;;6.30;54.50;;;4.64;58.43;99609.69;12261436;19;19943;-89
2023/03/08 08:43:09;;;;;;;;;;;6.40;54.40;;;4.72;58.40;99604.09;12253474;19;19919;-88
2023/03/08 08:47:10;;;;;;;;;;;6.50;54.30;;;4.71;58.20;99589.53;12257651;19;19918;-88
2023/03/08 08:51:13;;;;;;;;;;;6.50;54.10;;;4.76;58.47;99581.53;12255835;19;19942;-88
2023/03/08 08:55:14;;;;;;;;;;;6.60;54.10;;;4.54;58.26;99528.31;12252752;19;19926;-88
2023/03/08 08:59:16;;;;;;;;;;;6.70;54.10;;;4.68;58.46;99526.78;12255569;19;19948;-88
2023/03/08 09:03:17;;;;;;;;;;;6.80;54.10;;;5.10;58.44;99580.66;12253518;19;19945;-88
2023/03/08 09:07:19;;;;;;;;;;;6.80;54.10;;;4.88;58.32;99524.84;12243006;19;20534;-89
2023/03/08 09:11:21;;;;;;;;;;;6.90;54.10;;;4.97;58.37;99528.72;12247489;19;19919;-89
2023/03/08 09:15:22;;;;;;;;;;;6.90;54.00;;;5.25;58.35;99563.53;12250796;19;19927;-87
2023/03/08 09:19:24;;;;;;;;;;;7.10;54.10;;;5.04;58.31;99513.72;12249237;19;19970;-88
2023/03/08 09:23:27;;;;;;;;;;;7.10;54.00;;;5.38;58.33;99564.56;12252397;19;19982;-89
2023/03/08 09:27:28;;;;;;;;;;;7.20;54.00;;;5.49;58.41;99579.53;12250725;19;19922;-88
2023/03/08 09:31:32;;;;;;;;;;;7.20;53.80;;;5.26;58.22;99531.53;12248050;19;19923;-88
2023/03/08 09:35:33;;;;;;;;;;;7.20;53.80;;;5.44;58.28;99553.03;12247848;19;19942;-88
2023/03/08 09:39:34;;;;;;;;;;;7.30;53.60;;;5.45;58.22;99545.16;12248017;19;19922;-88
2023/03/08 09:44:04;;;;;;;;;;;7.30;53.50;;;5.62;58.38;99559.00;12246271;19;19933;-88
2023/03/08 09:48:09;;;;;;;;;;;7.30;53.60;;;5.67;58.23;99563.00;12250866;19;19922;-88
2023/03/08 09:52:23;;;;;;;;;;;7.40;53.60;;;5.69;58.18;99553.38;12248225;19;19915;-88
2023/03/08 09:56:35;;;;;;;;;;;7.40;53.50;;;5.58;58.33;99536.75;12250486;19;19926;-87
2023/03/08 10:00:37;;;;;;;;;;;7.40;53.50;;;5.74;58.29;99545.38;12246455;19;19923;-89
2023/03/08 10:05:01;;;;;;;;;;;7.50;53.50;;;5.81;58.09;99545.91;12249949;19;20287;-88
2023/03/08 10:09:18;;;;;;;;;;;7.50;53.20;;;5.83;58.12;99544.84;12250920;19;19914;-87
2023/03/08 10:13:25;;;;;;;;;;;7.50;53.10;;;5.88;58.19;99547.22;12252776;19;20327;-87
2023/03/08 10:17:53;;;;;;;;;;;7.60;53.10;;;5.89;58.09;99526.41;12252040;19;19927;-89
2023/03/08 10:21:56;;;;;;;;;;;7.60;53.00;;;6.02;58.34;99521.41;12244568;19;19919;-88
2023/03/08 10:25:58;;;;;;;;;;;7.70;51.80;;;6.09;58.29;99529.69;12250720;19;19915;-87
2023/03/08 10:30:10;;;;;;;;;;;7.90;52.80;;;6.15;58.35;99522.38;12250671;19;19911;-88
2023/03/08 10:34:19;;;;;;;;;;;7.90;53.00;;;6.16;58.05;99521.47;12246810;19;19919;-87
2023/03/08 10:38:22;;;;;;;;;;;7.90;52.20;;;6.00;58.05;99478.38;12250744;19;19918;-87
2023/03/08 10:42:26;;;;;;;;;;;7.90;52.80;;;6.31;58.14;99516.34;12247519;19;19931;-88
2023/03/08 10:46:32;;;;;;;;;;;8.00;52.90;;;6.36;58.01;99517.75;12249070;19;19918;-87
2023/03/08 10:50:36;;;;;;;;;;;8.00;52.90;;;6.42;58.07;99517.38;12248995;19;19986;-88
2023/03/08 10:54:38;;;;;;;;;;;8.10;52.80;;;6.38;57.89;99510.72;12256816;19;20326;-88
2023/03/08 10:58:39;;;;;;;;;;;8.10;52.80;;;6.30;57.98;99487.00;12259449;19;19974;-87
2023/03/08 11:02:41;;;;;;;;;;;8.40;52.80;;;6.34;57.93;99477.25;12255531;19;19933;-88
2023/03/08 11:06:43;;;;;;;;;;;8.20;52.70;;;6.34;57.90;99466.91;12257471;19;19923;-88
2023/03/08 11:10:44;;;;;;;;;;;8.20;52.80;;;6.25;57.80;99441.53;12259505;19;19911;-88
2023/03/08 11:14:46;;;;;;;;;;;8.20;52.40;;;6.45;58.08;99467.09;12257208;19;21473;-87
2023/03/08 11:19:33;;;;;;;;;;;8.20;52.30;;;6.50;57.97;99475.44;12260422;19;19918;-88
2023/03/08 11:23:45;;;;;;;;;;;8.20;52.40;;;6.52;57.89;99465.81;12254307;19;19917;-87
2023/03/08 11:28:14;;;;;;;;;;;8.20;52.60;;;6.57;57.86;99463.81;12254937;19;19918;-87
2023/03/08 11:32:29;;;;;;;;;;;8.20;52.50;;;6.52;57.97;99450.28;12248907;19;19919;-87
2023/03/08 11:36:46;;;;;;;;;;;8.30;52.60;;;6.62;57.93;99451.41;12255038;19;19935;-88
2023/03/08 11:41:00;;;;;;;;;;;8.30;52.70;;;6.64;57.73;99439.19;12254632;19;19922;-88
2023/03/08 11:45:22;;;;;;;;;;;8.30;52.50;;;6.58;57.74;99423.13;12251326;19;19919;-87
2023/03/08 11:49:42;;;;;;;;;;;8.30;51.90;;;6.34;57.80;99381.34;12253734;19;19978;-88
2023/03/08 11:54:21;;;;;;;;;;;8.30;51.60;;;6.64;57.97;99420.16;12254394;19;19919;-87
2023/03/08 11:58:49;;;;;;;;;;;8.30;52.20;;;6.64;57.83;99404.59;12258663;19;19941;-88
2023/03/08 12:02:52;;;;;;;;;;;8.30;51.70;;;6.65;57.78;99401.94;12247602;19;19919;-88
2023/03/08 12:06:55;;;;;;;;;;;8.30;52.20;;;6.59;57.79;99378.97;12251124;19;19923;-88
2023/03/08 12:11:10;;;;;;;;;;;8.40;52.10;;;6.57;57.61;99372.19;12255204;19;20321;-87
2023/03/08 12:15:38;;;;;;;;;;;8.40;51.70;;;6.65;57.84;99377.75;12253240;19;20309;-86
2023/03/08 12:19:49;;;;;;;;;;;8.40;52.10;;;6.40;57.75;99331.75;12251955;19;19923;-87
2023/03/08 12:24:24;;;;;;;;;;;8.40;52.10;;;6.75;57.66;99373.69;12257668;19;19939;-86
2023/03/08 12:28:32;;;;;;;;;;;8.40;52.30;;;6.69;57.63;99357.63;12243658;19;20252;-87
2023/03/08 12:32:37;;;;;;;;;;;8.40;52.20;;;6.37;57.75;99312.00;12248959;19;19943;-87
2023/03/08 12:36:41;;;;;;;;;;;8.70;52.40;;;6.87;57.51;99372.09;12252008;19;19919;-87
2023/03/08 12:40:46;;;;;;;;;;;8.40;52.10;;;6.79;57.48;99346.59;12242233;19;19919;-87
2023/03/08 12:44:48;;;;;;;;;;;8.50;51.50;;;6.80;57.36;99347.44;12241161;19;19925;-88
2023/03/08 12:48:49;;;;;;;;;;;8.50;51.80;;;6.82;57.57;99354.19;12248147;19;19923;-87
2023/03/08 12:52:51;;;;;;;;;;;8.60;51.60;;;6.56;57.50;99303.94;12253329;19;19974;-89
2023/03/08 12:56:54;;;;;;;;;;;8.50;51.80;;;6.81;57.52;99346.53;12250027;19;20326;-88
2023/03/08 13:01:27;;;;;;;;;;;8.50;52.00;;;6.68;57.46;99322.25;12246978;19;19922;-87
2023/03/08 13:05:35;;;;;;;;;;;8.50;52.10;;;6.77;57.33;99335.47;12249123;19;20325;-86
2023/03/08 13:09:45;;;;;;;;;;;8.50;52.00;;;6.86;57.49;99360.88;12253435;19;20306;-87
2023/03/08 13:14:00;;;;;;;;;;;8.50;52.00;;;6.85;57.44;99359.19;12252143;19;19919;-87
2023/03/08 13:18:09;;;;;;;;;;;8.50;52.20;;;6.86;57.52;99366.06;12255196;19;19918;-87
2023/03/08 13:22:34;;;;;;;;;;;8.70;52.30;;;6.81;57.28;99357.72;12254806;19;19922;-87
2023/03/08 13:26:57;;;;;;;;;;;8.50;52.40;;;6.89;57.25;99374.59;12253850;19;19919;-87
2023/03/08 13:31:13;;;;;;;;;;;8.50;52.40;;;6.77;57.25;99356.22;12253890;19;19947;-90
2023/03/08 13:35:16;;;;;;;;;;;8.50;52.20;;;6.75;57.25;99363.31;12248353;19;19918;-86
2023/03/08 13:39:21;;;;;;;;;;;8.40;52.30;;;6.49;57.12;99315.59;12256522;19;20333;-86
2023/03/08 13:43:25;;;;;;;;;;;8.40;52.40;;;6.79;57.16;99363.94;12248296;19;19931;-88
2023/03/08 13:47:32;;;;;;;;;;;8.40;52.30;;;6.78;57.13;99368.31;12250354;19;19931;-87
2023/03/08 13:51:33;;;;;;;;;;;8.40;52.30;;;6.68;57.32;99349.03;12245189;19;19926;-87
2023/03/08 13:55:40;;;;;;;;;;;8.40;52.20;;;6.69;57.23;99348.09;12248108;19;19919;-89
2023/03/08 13:59:50;;;;;;;;;;;8.30;52.10;;;6.63;57.31;99344.13;12244647;19;19962;-87
2023/03/08 14:03:53;;;;;;;;;;;8.30;52.20;;;6.60;57.09;99353.84;12252534;19;19923;-87
2023/03/08 14:08:04;;;;;;;;;;;8.50;52.40;;;6.51;57.16;99347.47;12248821;19;19919;-86
2023/03/08 14:12:06;;;;;;;;;;;8.20;52.30;;;6.30;57.13;99325.44;12252254;19;19923;-86
2023/03/08 14:16:08;;;;;;;;;;;8.10;52.50;;;6.24;56.96;99321.44;12255369;19;19911;-86
2023/03/08 14:20:21;;;;;;;;;;;8.00;52.50;;;6.37;57.12;99342.25;12254197;19;20342;-89
2023/03/08 14:24:34;;;;;;;;;;;8.00;52.70;;;6.37;56.95;99355.22;12251599;19;19951;-86
2023/03/08 14:28:40;;;;;;;;;;;8.00;52.80;;;6.34;56.91;99350.22;12269147;19;19915;-86
2023/03/08 14:32:53;;;;;;;;;;;7.90;52.80;;;6.17;57.11;99328.75;12268747;19;19930;-86
2023/03/08 14:36:58;;;;;;;;;;;7.90;52.90;;;6.11;57.08;99323.09;12268830;19;19922;-86
2023/03/08 14:41:04;;;;;;;;;;;7.80;53.00;;;5.96;57.01;99296.34;12266625;19;20293;-86
2023/03/08 14:45:23;;;;;;;;;;;7.80;53.10;;;5.98;57.11;99300.50;12264957;19;19915;-86
2023/03/08 14:49:27;;;;;;;;;;;7.70;53.10;;;6.02;56.89;99308.91;12267744;19;19932;-86
2023/03/08 14:53:34;;;;;;;;;;;7.70;53.10;;;6.02;57.00;99315.84;12263319;19;19961;-85
2023/03/08 14:57:35;;;;;;;;;;;7.60;53.10;;;5.99;57.16;99311.69;12263935;19;20344;-85
2023/03/08 15:01:38;;;;;;;;;;;7.60;53.20;;;5.95;57.04;99305.03;12264028;19;19927;-86
2023/03/08 15:05:39;;;;;;;;;;;7.50;53.50;;;5.93;56.97;99314.63;12266703;19;19918;-85
2023/03/08 15:09:41;;;;;;;;;;;7.50;53.20;;;5.79;57.00;99286.09;12264979;19;19978;-86
2023/03/08 15:13:43;;;;;;;;;;;7.50;53.30;;;5.84;57.03;99307.41;12263428;19;19926;-85
2023/03/08 15:17:45;;;;;;;;;;;7.40;53.30;;;5.58;57.12;99262.28;12265032;19;19984;-86
2023/03/08 15:21:47;;;;;;;;;;;7.40;53.40;;;5.86;57.28;99308.13;12262657;19;19915;-86
2023/03/08 15:25:49;;;;;;;;;;;7.40;53.50;;;5.82;57.13;99302.28;12263927;19;19911;-86
2023/03/08 15:29:50;;;;;;;;;;;7.40;53.50;;;5.82;57.04;99299.72;12264729;19;19926;-86
2023/03/08 15:33:52;;;;;;;;;;;7.30;53.40;;;5.67;57.09;99270.38;12259614;19;19915;-86
2023/03/08 15:37:53;;;;;;;;;;;7.30;53.40;;;5.77;56.92;99292.19;12264742;19;20028;-86
2023/03/08 15:41:55;;;;;;;;;;;7.30;53.50;;;5.73;56.90;99288.13;12262872;19;19933;-85
2023/03/08 15:45:56;;;;;;;;;;;7.30;53.40;;;5.77;56.88;99286.19;12265132;19;20272;-86
2023/03/08 15:49:57;;;;;;;;;;;7.20;53.40;;;5.61;57.09;99259.53;12263855;19;19930;-86
2023/03/08 15:53:59;;;;;;;;;;;7.20;53.40;;;5.58;57.05;99257.94;12262137;19;19922;-86
2023/03/08 15:58:01;;;;;;;;;;;7.20;53.40;;;5.65;56.96;99268.78;12263475;19;19930;-86
2023/03/08 16:02:03;;;;;;;;;;;7.20;53.40;;;5.62;56.94;99264.63;12259132;19;19915;-86
2023/03/08 16:06:09;;;;;;;;;;;7.10;53.40;;;5.55;57.15;99266.72;12261750;19;20330;-86
2023/03/08 16:10:12;;;;;;;;;;;7.10;53.50;;;5.47;56.95;99240.44;12262737;19;19923;-86
2023/03/08 16:14:16;;;;;;;;;;;7.40;53.60;;;5.37;57.17;99217.78;12260419;19;19918;-87
2023/03/08 16:18:18;;;;;;;;;;;7.10;53.50;;;5.53;57.19;99252.19;12261146;19;19923;-86
2023/03/08 16:22:19;;;;;;;;;;;7.10;53.50;;;5.51;57.17;99251.47;12259148;19;19922;-86
2023/03/08 16:26:20;;;;;;;;;;;7.10;53.50;;;5.58;57.17;99257.13;12260711;19;19918;-87
2023/03/08 16:30:22;;;;;;;;;;;7.30;53.60;;;5.54;57.00;99256.47;12262786;19;19910;-86
2023/03/08 16:34:24;;;;;;;;;;;7.10;53.90;;;5.59;57.17;99266.53;12261095;19;19934;-87
2023/03/08 16:38:26;;;;;;;;;;;7.10;53.60;;;5.38;56.98;99237.56;12263769;19;19926;-86
2023/03/08 16:42:28;;;;;;;;;;;7.10;53.60;;;5.41;57.20;99242.56;12258640;19;19934;-86
2023/03/08 16:46:29;;;;;;;;;;;7.10;53.60;;;5.50;57.08;99250.63;12259314;19;19986;-86
2023/03/08 16:50:30;;;;;;;;;;;7.00;53.60;;;5.33;57.00;99227.47;12256540;19;20352;-86
2023/03/08 16:54:32;;;;;;;;;;;7.10;53.60;;;5.31;57.29;99232.72;12257651;19;19922;-87
2023/03/08 16:58:33;;;;;;;;;;;7.00;53.70;;;5.45;57.00;99255.22;12257292;19;19919;-86
2023/03/08 17:02:35;;;;;;;;;;;7.10;53.70;;;5.45;56.97;99254.41;12251190;19;19971;-87
2023/03/08 17:06:37;;;;;;;;;;;6.90;53.60;;;5.21;56.98;99216.09;12260827;19;19951;-86
2023/03/08 17:10:40;;;;;;;;;;;6.90;53.60;;;5.30;57.10;99231.06;12258155;19;19939;-87
2023/03/08 17:14:42;;;;;;;;;;;6.90;53.60;;;5.22;57.09;99228.09;12254222;19;19934;-86
2023/03/08 17:18:44;;;;;;;;;;;6.90;53.60;;;5.10;57.03;99213.25;12261262;19;19966;-87
2023/03/08 17:22:46;;;;;;;;;;;6.90;53.60;;;4.96;57.22;99202.88;12257189;19;19918;-86
2023/03/08 17:26:50;;;;;;;;;;;6.80;53.60;;;5.29;57.16;99255.31;12256148;19;19978;-87
2023/03/08 17:30:51;;;;;;;;;;;6.90;53.60;;;5.22;57.27;99238.44;12257996;19;19919;-86
2023/03/08 17:34:53;;;;;;;;;;;6.80;53.60;;;5.25;57.24;99250.38;12253917;19;19931;-86
2023/03/08 17:38:55;;;;;;;;;;;6.80;53.70;;;5.19;57.09;99240.38;12252591;19;19910;-91
2023/03/08 17:42:58;;;;;;;;;;;6.70;53.70;;;5.09;57.04;99240.06;12252029;19;19918;-88
2023/03/08 17:47:00;;;;;;;;;;;6.70;53.60;;;4.95;57.30;99221.91;12253248;19;19906;-86
2023/03/08 17:51:07;;;;;;;;;;;6.70;53.80;;;4.78;57.20;99208.16;12252732;19;19917;-88
2023/03/08 17:55:09;;;;;;;;;;;6.60;53.70;;;5.00;57.15;99236.25;12251900;19;19980;-87
2023/03/08 17:59:15;;;;;;;;;;;6.60;53.70;;;4.99;57.21;99242.31;12254687;19;19918;-86
2023/03/08 18:03:17;;;;;;;;;;;6.50;53.60;;;4.97;57.23;99238.16;12253017;19;19993;-86
2023/03/08 18:07:19;;;;;;;;;;;6.80;53.90;;;4.94;57.25;99227.97;12256421;19;19950;-86
2023/03/08 18:11:21;;;;;;;;;;;6.50;53.70;;;4.92;57.25;99224.66;12256602;19;19919;-86
2023/03/08 18:15:23;;;;;;;;;;;6.70;53.80;;;4.89;57.33;99225.66;12248958;19;20257;-86
2023/03/08 18:19:24;;;;;;;;;;;6.40;53.70;;;4.84;57.15;99227.69;12254485;19;19923;-86
2023/03/08 18:23:28;;;;;;;;;;;6.40;53.70;;;4.86;57.14;99225.81;12250303;19;19925;-87
2023/03/08 18:27:30;;;;;;;;;;;6.40;53.80;;;4.72;57.30;99215.41;12254908;19;19966;-86
2023/03/08 18:31:33;;;;;;;;;;;6.40;53.90;;;4.65;57.34;99209.78;12251976;19;19940;-86
2023/03/08 18:35:35;;;;;;;;;;;6.40;53.80;;;4.84;57.34;99238.03;12251031;19;19926;-87
2023/03/08 18:39:36;;;;;;;;;;;6.40;53.90;;;4.90;57.26;99254.94;12254972;19;19987;-86
2023/03/08 18:43:38;;;;;;;;;;;6.40;53.90;;;4.91;57.31;99254.84;12255117;19;19923;-88
2023/03/08 18:47:39;;;;;;;;;;;6.40;54.00;;;4.91;57.25;99248.84;12260007;19;19930;-86
2023/03/08 18:51:41;;;;;;;;;;;6.40;53.90;;;4.80;57.32;99233.94;12254510;19;19955;-86
2023/03/08 18:56:12;;;;;;;;;;;6.40;53.90;;;4.91;57.24;99254.84;12255402;19;19939;-86
2023/03/08 19:00:14;;;;;;;;;;;6.40;53.90;;;4.91;57.24;99248.84;12255864;19;19918;-86